Saskatoon, Saskatchewan

2:28 AM CST on August 26, 2016 (GMT -0600)
Saskatoon-Diefenbaker International | | Change Station

Elev 1654 ft 52.17 °N, 106.69 °W | Updated 28 minutes ago

Overcast
Overcast
54 °F
Feels Like 54 °F
N
6
Wind Variable Wind from WNW

Today
High -- | Low -- °F
--% Chance of Precip.
Yesterday
High -- | Low -- °F
Precip. -- in
Pressure 30.01 in
Visibility 15.0 miles
Clouds Few 1500 ft
Overcast 8000 ft
Dew Point 54 °F
Humidity 100%
Rainfall 0.00 in
Snow Depth Not available.
6:09 AM 8:06 PM
Last Quarter, 37% visible
METAR CYXE 260800Z 30005KT 15SM FEW015 OVC080 12/12 A2998 RMK SC1AC7 SLP161
Pressure 30.01 in
Visibility 15.0 miles
Clouds Few 1500 ft
Overcast 8000 ft
Dew Point 54 °F
Humidity 100%
Rainfall 0.00 in
Snow Depth Not available.
6:09 AM 8:06 PM
Last Quarter, 37% visible
METAR CYXE 260800Z 30005KT 15SM FEW015 OVC080 12/12 A2998 RMK SC1AC7 SLP161

10-Day Weather Forecast

Almanac

Astronomy

Aug. 26, 2016 Rise Set
Actual Time
Civil Twilight
Nautical Twilight
Astronomical Twilight
Moon
Length of Visible Light
Length of Day
Tomorrow will be .
, % of the Moon is Illuminated

Today's Extremes

Country Highs Country Lows

Community

WunderPhotos

Upload Photos

1,935,062 photos uploaded!

WunderBlog® & News

Nearby

Air Quality

  Air Quality AQ Index Pollutant
Not available.

Snow Depth

Station Depth Elevation

Earthquake Activity

City Distance Mag. Time & Date
Minimum magnitude displayed is 2.5.

Coastal Water Temperatures

Place Temperature

Stations

Nearby Weather Stations

Station Location Temp. Windchill Dew Point Humidity Wind Precip. Elev Updated Type
                   

Watches & Warnings

There are currently no watches in effect.